This is the latest recevied weather packets stored in our database for station/object N9PBY-2. If no packets are shown the sender has not sent any weather packets the latest 1 day(s).
| Time | Temp. | Humidity | Pressure | Rain* | Wind** | Luminosity | Snow |
|---|---|---|---|---|---|---|---|
| 1778003406 | 14.44° C | 29% | 1007.3 hPa | 0 mm | 1.79 m/s, 267° | - | - |
| 1778002807 | 13.89° C | 31% | 1007.2 hPa | 0 mm | 1.79 m/s, 282° | - | - |
| 1778002207 | 13.89° C | 26% | 1007.3 hPa | 0 mm | 2.24 m/s, 262° | - | - |
| 1778001606 | 13.89° C | 28% | 1007.1 hPa | 0 mm | 1.79 m/s, 265° | - | - |
| 1778001006 | 13.33° C | 31% | 1007.2 hPa | 0 mm | 1.79 m/s, 289° | - | - |
| 1778000407 | 13.33° C | 26% | 1007.1 hPa | 0 mm | 1.79 m/s, 256° | - | - |
| 1777999807 | 13.33° C | 29% | 1007.1 hPa | 0 mm | 2.24 m/s, 262° | - | - |
| 1777999207 | 12.78° C | 32% | 1007.3 hPa | 0 mm | 1.79 m/s, 285° | - | - |
| 1777998607 | 12.78° C | 29% | 1007.2 hPa | 0 mm | 1.79 m/s, 285° | - | - |
| 1777998006 | 12.78° C | 31% | 1007.3 hPa | 0 mm | 1.79 m/s, 266° | - | - |
| 1777997406 | 12.78° C | 30% | 1007.2 hPa | 0 mm | 1.79 m/s, 258° | - | - |
| 1777996806 | 12.78° C | 30% | 1007.2 hPa | 0 mm | 1.79 m/s, 258° | - | - |
| 1777996206 | 12.78° C | 32% | 1007.2 hPa | 0 mm | 1.79 m/s, 253° | - | - |
| 1777995606 | 12.78° C | 29% | 1007.3 hPa | 0 mm | 1.34 m/s, 232° | - | - |
| 1777995007 | 12.22° C | 33% | 1007.5 hPa | 0 mm | 1.79 m/s, 253° | - | - |
| 1777994407 | 11.67° C | 32% | 1007.4 hPa | 0 mm | 1.34 m/s, 262° | - | - |
| 1777993806 | 11.11° C | 36% | 1007.2 hPa | 0 mm | 1.34 m/s, 257° | - | - |
| 1777993207 | 10.56° C | 36% | 1007.4 hPa | 0 mm | 1.34 m/s, 257° | - | - |
| 1777992606 | 10.56° C | 38% | 1007.5 hPa | 0 mm | 1.34 m/s, 264° | - | - |
| 1777992006 | 10° C | 37% | 1007.6 hPa | 0 mm | 1.34 m/s, 264° | - | - |
| 1777991406 | 9.44° C | 38% | 1007.6 hPa | 0 mm | 1.34 m/s, 269° | - | - |
| 1777990807 | 10° C | 39% | 1007.5 hPa | 0 mm | 1.34 m/s, 270° | - | - |
| 1777990206 | 9.44° C | 39% | 1007.5 hPa | 0 mm | 1.79 m/s, 267° | - | - |
| 1777989607 | 9.44° C | 38% | 1007.5 hPa | 0 mm | 1.79 m/s, 260° | - | - |
| 1777989006 | 9.44° C | 39% | 1007.4 hPa | 0 mm | 1.79 m/s, 274° | - | - |
* Rain latest hour (hover to see other rain measurements)
** Current wind speed in m/s (hover to see current wind gust speed)